Buritinopolis, Brazil
Current Conditions -  °F | °C
As of 9:00 PM on Friday 24 Oct 2014 (Local Time) from SBBR Reporting Station
Broken Clouds Broken Clouds  
Wind Chill: 81°   Ceiling: 10000
Heat Index: 81°   Visibility: 6mi
Dew Point: 59°   Wind: 2mph
Humidity: 48%   Direction: 120°ESE
Pressure: 30"   Gusts: NA
Location:  14.46°S, 46.44°W
Report Text: SBBR 242300Z 12002KT 9999 FEW040 BKN100 27/15 Q1016
Loading
Personal Weather Stations






























Interactive Weather Map
Tropical Storm Tracking
New forecast layout! Learn more

10-Day Weather Forecast

Advertisements
Track Severe Weather on mobile